Time;durP1;ratioP1;P1;durP2;ratioP2;P2;SDS_P1;SDS_P2;PMS_P1;PMS_P2;Temp;Humidity;BMP_temperature;BMP_pressure;BME280_temperature;BME280_humidity;BME280_pressure;Samples;Min_cycle;Max_cycle;Signal;HPM_P1;HPM_P2
2023/12/14 00:00:21;;;;;;;4.70;2.45;;;;;;;14.33;82.45;96257.31;5117991;27;20059;-77
2023/12/14 00:02:46;;;;;;;3.67;2.60;;;;;;;14.32;81.82;96255.56;5117666;27;20038;-77
2023/12/14 00:05:12;;;;;;;5.40;2.40;;;;;;;14.36;81.66;96248.09;5146090;27;20099;-77
2023/12/14 00:07:37;;;;;;;3.60;2.40;;;;;;;14.40;81.33;96250.31;5132678;27;20570;-77
2023/12/14 00:10:04;;;;;;;8.82;2.70;;;;;;;14.36;81.52;96254.31;5133034;27;20027;-77
2023/12/14 00:12:30;;;;;;;3.67;2.30;;;;;;;14.29;81.74;96246.94;5131500;27;20140;-77
2023/12/14 00:14:56;;;;;;;3.33;2.20;;;;;;;14.43;80.16;96249.16;5114325;27;20537;-77
2023/12/14 00:17:21;;;;;;;2.97;2.15;;;;;;;14.52;79.26;96249.09;5134811;27;20022;-76
2023/12/14 00:19:47;;;;;;;5.47;2.30;;;;;;;14.54;78.65;96239.06;5117278;27;20026;-77
2023/12/14 00:22:13;;;;;;;3.70;2.30;;;;;;;14.55;78.74;96245.28;5134673;27;20029;-77
2023/12/14 00:24:38;;;;;;;3.83;2.30;;;;;;;14.63;77.92;96259.66;5152796;27;20027;-76
2023/12/14 00:27:04;;;;;;;5.07;2.13;;;;;;;14.61;77.53;96253.56;5130381;27;20026;-77
2023/12/14 00:29:30;;;;;;;4.13;2.17;;;;;;;14.63;77.42;96245.34;5131566;27;20023;-76
2023/12/14 00:31:55;;;;;;;6.70;2.33;;;;;;;14.67;77.06;96251.28;5134597;27;20057;-77
2023/12/14 00:34:21;;;;;;;5.22;2.42;;;;;;;14.62;77.38;96255.28;5117318;27;20114;-77
2023/12/14 00:36:46;;;;;;;4.40;2.10;;;;;;;14.61;77.15;96248.19;5134408;27;20027;-77
2023/12/14 00:39:12;;;;;;;6.40;3.13;;;;;;;14.65;77.13;96244.22;5129296;27;20466;-76
2023/12/14 00:41:38;;;;;;;3.63;2.38;;;;;;;14.61;77.03;96241.97;5125058;27;20478;-77
2023/12/14 00:44:04;;;;;;;3.67;1.63;;;;;;;14.57;77.39;96225.28;5125306;27;20088;-77
2023/12/14 00:46:29;;;;;;;2.75;1.83;;;;;;;14.60;76.82;96243.81;5130219;27;20019;-77
2023/12/14 00:48:55;;;;;;;6.10;2.40;;;;;;;14.62;76.72;96263.34;5131902;27;20114;-76
2023/12/14 00:51:21;;;;;;;2.78;1.85;;;;;;;14.59;77.11;96249.34;5127424;27;20375;-76
2023/12/14 00:53:46;;;;;;;3.13;2.22;;;;;;;14.49;77.70;96238.63;5131958;27;20375;-77
2023/12/14 00:56:12;;;;;;;5.00;2.45;;;;;;;14.44;78.58;96240.94;5130802;27;20497;-77
2023/12/14 00:58:38;;;;;;;4.78;2.65;;;;;;;14.39;78.84;96237.03;5114357;27;20071;-77
2023/12/14 01:01:03;;;;;;;2.85;2.13;;;;;;;14.32;79.11;96239.44;5130640;27;20370;-77
2023/12/14 01:03:29;;;;;;;5.60;2.60;;;;;;;14.30;79.71;96236.06;5130591;27;20125;-77
2023/12/14 01:05:54;;;;;;;3.20;2.10;;;;;;;14.31;79.76;96235.03;5130288;27;20069;-77
2023/12/14 01:08:20;;;;;;;4.95;2.80;;;;;;;14.34;79.06;96231.22;5131763;27;20041;-77
2023/12/14 01:10:46;;;;;;;4.25;2.20;;;;;;;14.33;79.54;96243.84;5113051;27;20023;-76
2023/12/14 01:13:11;;;;;;;11.45;4.97;;;;;;;14.35;78.73;96241.84;5131614;27;20308;-76
2023/12/14 01:15:37;;;;;;;5.50;2.80;;;;;;;14.35;78.90;96230.25;5131366;27;20019;-77
2023/12/14 01:18:03;;;;;;;4.45;2.50;;;;;;;14.36;78.48;96232.78;5113050;27;20027;-76
2023/12/14 01:20:29;;;;;;;8.57;4.82;;;;;;;14.42;78.03;96234.03;5130471;27;20019;-77
2023/12/14 01:22:54;;;;;;;6.70;3.88;;;;;;;14.53;77.58;96240.03;5130374;27;20059;-77
2023/12/14 01:25:20;;;;;;;3.55;2.53;;;;;;;14.56;76.58;96230.81;5131413;27;20062;-77
2023/12/14 01:27:45;;;;;;;5.30;3.17;;;;;;;14.69;75.35;96244.75;5112987;27;20462;-77
2023/12/14 01:30:11;;;;;;;3.20;2.40;;;;;;;14.71;74.58;96233.81;5112581;27;20103;-77
2023/12/14 01:32:37;;;;;;;5.13;2.95;;;;;;;14.82;73.59;96228.22;5130014;27;20023;-77
2023/12/14 01:35:04;;;;;;;4.00;1.85;;;;;;;14.86;73.13;96243.09;5112955;27;20617;-77
2023/12/14 01:37:29;;;;;;;4.32;2.20;;;;;;;15.06;70.68;96237.38;5130433;27;20489;-77
2023/12/14 01:39:55;;;;;;;4.00;1.95;;;;;;;15.13;69.93;96232.22;5125975;27;20056;-77
2023/12/14 01:42:20;;;;;;;3.08;2.13;;;;;;;15.16;69.61;96229.22;5130526;27;20027;-77
2023/12/14 01:44:46;;;;;;;3.25;1.90;;;;;;;15.20;68.50;96212.56;5131180;27;20030;-76
2023/12/14 01:47:12;;;;;;;3.00;1.80;;;;;;;15.24;67.92;96207.72;5131204;27;20096;-76
2023/12/14 01:49:37;;;;;;;4.65;2.15;;;;;;;15.35;66.83;96212.03;5131202;27;20109;-77
2023/12/14 01:52:03;;;;;;;2.58;1.45;;;;;;;15.46;66.08;96218.00;5130020;27;20049;-77
2023/12/14 01:54:28;;;;;;;5.45;2.83;;;;;;;15.36;67.15;96209.16;5129905;27;20011;-77
2023/12/14 01:56:54;;;;;;;6.53;2.63;;;;;;;15.20;67.88;96201.81;5129802;27;20038;-77
2023/12/14 01:59:20;;;;;;;8.30;2.50;;;;;;;15.19;68.08;96204.66;5131603;27;20023;-77
2023/12/14 02:01:47;;;;;;;6.78;2.40;;;;;;;15.05;69.29;96202.50;5134113;27;20025;-77
2023/12/14 02:04:13;;;;;;;5.00;2.25;;;;;;;14.90;70.61;96194.16;5133746;27;20047;-76
2023/12/14 02:06:39;;;;;;;5.18;2.50;;;;;;;14.77;71.63;96193.69;5137224;27;20027;-76
2023/12/14 02:09:05;;;;;;;4.53;2.60;;;;;;;14.69;72.99;96184.69;5128929;27;20095;-77
2023/12/14 02:11:31;;;;;;;2.30;1.73;;;;;;;14.59;73.83;96196.38;5136951;27;20019;-77
2023/12/14 02:13:57;;;;;;;3.08;1.70;;;;;;;14.57;74.01;96194.84;5134162;27;20604;-76
2023/12/14 02:16:22;;;;;;;4.55;2.03;;;;;;;14.52;74.73;96195.28;5117757;27;20102;-76
2023/12/14 02:18:48;;;;;;;2.63;1.67;;;;;;;14.49;74.97;96187.50;5116696;27;20470;-76
2023/12/14 02:21:13;;;;;;;3.80;1.92;;;;;;;14.53;74.40;96180.84;5133814;27;20019;-77
2023/12/14 02:23:46;;;;;;;2.47;1.58;;;;;;;14.62;73.36;96196.06;5137641;27;20068;-77
2023/12/14 02:26:12;;;;;;;4.65;2.60;;;;;;;14.56;74.00;96185.06;5116821;27;20027;-77
2023/12/14 02:28:38;;;;;;;4.97;2.70;;;;;;;14.44;74.33;96176.38;5134644;27;20444;-76
2023/12/14 02:31:03;;;;;;;7.60;3.05;;;;;;;14.50;75.01;96186.53;5135015;27;20110;-78
2023/12/14 02:33:29;;;;;;;6.13;2.53;;;;;;;14.50;74.59;96180.28;5134552;27;20023;-77
2023/12/14 02:35:54;;;;;;;4.13;2.20;;;;;;;14.52;73.90;96163.00;5132208;27;20034;-76
2023/12/14 02:38:20;;;;;;;2.55;1.83;;;;;;;14.58;73.79;96175.84;5129389;27;20074;-77
2023/12/14 02:40:46;;;;;;;8.00;3.28;;;;;;;14.48;75.05;96182.31;5133317;27;20052;-76
2023/12/14 02:43:12;;;;;;;9.75;3.17;;;;;;;14.34;77.11;96167.53;5133941;27;20034;-76
2023/12/14 02:45:38;;;;;;;9.55;3.95;;;;;;;14.29;77.65;96177.88;5115991;27;20027;-76
2023/12/14 02:48:04;;;;;;;5.95;2.65;;;;;;;14.36;77.28;96179.00;5119296;27;20489;-76
2023/12/14 02:50:30;;;;;;;6.18;2.90;;;;;;;14.47;75.32;96159.06;5136509;27;20037;-77
2023/12/14 02:52:56;;;;;;;10.60;4.45;;;;;;;14.56;74.14;96168.91;5155276;27;20015;-77
2023/12/14 02:55:21;;;;;;;5.65;2.63;;;;;;;14.63;73.95;96181.63;5136490;27;20416;-77
2023/12/14 02:57:47;;;;;;;6.57;2.15;;;;;;;14.60;73.23;96171.16;5118887;27;20502;-77
2023/12/14 03:00:13;;;;;;;6.45;3.00;;;;;;;14.60;73.28;96160.41;5136237;27;20065;-76
2023/12/14 03:02:39;;;;;;;11.73;3.97;;;;;;;14.60;73.75;96155.03;5135977;27;20049;-76
2023/12/14 03:05:04;;;;;;;5.95;3.10;;;;;;;14.65;72.48;96150.00;5114455;27;20103;-77
2023/12/14 03:07:30;;;;;;;9.23;4.05;;;;;;;14.69;72.47;96158.63;5154683;27;20405;-76
2023/12/14 03:09:56;;;;;;;7.03;2.88;;;;;;;14.63;73.45;96156.56;5118360;27;20411;-76
2023/12/14 03:12:21;;;;;;;9.88;3.55;;;;;;;14.52;74.81;96156.75;5154545;27;20015;-77
2023/12/14 03:14:47;;;;;;;6.22;2.60;;;;;;;14.50;74.91;96162.31;5136013;27;20030;-77
2023/12/14 03:17:13;;;;;;;4.20;2.72;;;;;;;14.47;74.31;96167.16;5136230;27;20505;-77
2023/12/14 03:19:42;;;;;;;4.10;2.38;;;;;;;14.37;75.55;96151.06;5154348;27;20019;-77
2023/12/14 03:22:08;;;;;;;4.28;2.58;;;;;;;14.33;75.97;96157.78;5135984;27;20080;-77
2023/12/14 03:24:35;;;;;;;10.48;4.43;;;;;;;14.29;76.25;96163.56;5118987;27;20441;-76
2023/12/14 03:27:01;;;;;;;5.95;3.65;;;;;;;14.27;76.67;96160.19;5110490;27;20053;-76
2023/12/14 03:29:27;;;;;;;7.28;3.70;;;;;;;14.07;82.43;96172.91;5113934;27;20029;-76
2023/12/14 03:31:52;;;;;;;10.52;5.30;;;;;;;13.70;89.25;96188.22;5135382;27;20038;-77
2023/12/14 03:34:18;;;;;;;10.15;5.38;;;;;;;13.14;95.96;96177.47;5153991;27;20026;-76
2023/12/14 03:36:44;;;;;;;11.32;5.60;;;;;;;12.79;100.00;96188.81;5135541;27;20109;-76
2023/12/14 03:39:10;;;;;;;6.78;3.90;;;;;;;12.27;100.00;96188.22;5118434;27;20026;-77
2023/12/14 03:41:35;;;;;;;7.70;4.65;;;;;;;12.01;100.00;96207.59;5135191;27;20030;-77
2023/12/14 03:44:01;;;;;;;9.32;4.75;;;;;;;11.76;100.00;96203.56;5135357;27;20023;-77
2023/12/14 03:46:27;;;;;;;14.07;7.03;;;;;;;11.54;100.00;96204.56;5118322;27;20034;-76
2023/12/14 03:48:52;;;;;;;12.88;5.55;;;;;;;11.34;100.00;96206.31;5113777;27;20027;-75
2023/12/14 03:51:19;;;;;;;8.48;5.20;;;;;;;11.34;100.00;96209.00;5135177;27;20022;-77
2023/12/14 03:53:48;;;;;;;14.30;5.30;;;;;;;11.27;100.00;96226.56;5117975;27;20058;-76
2023/12/14 03:56:13;;;;;;;10.93;4.78;;;;;;;11.20;100.00;96205.78;5118107;27;20026;-76
2023/12/14 03:58:39;;;;;;;13.25;6.68;;;;;;;11.18;100.00;96207.75;5118286;27;20029;-76
2023/12/14 04:01:04;;;;;;;8.98;4.82;;;;;;;11.21;100.00;96216.38;5135095;27;20028;-76
2023/12/14 04:03:30;;;;;;;6.95;4.30;;;;;;;11.42;100.00;96193.09;5135293;27;20030;-77
2023/12/14 04:05:56;;;;;;;12.20;6.00;;;;;;;11.46;100.00;96200.88;5116520;27;20047;-77
2023/12/14 04:08:21;;;;;;;20.38;7.90;;;;;;;11.39;100.00;96212.13;5132651;27;20027;-76
2023/12/14 04:10:47;;;;;;;22.63;9.73;;;;;;;11.32;100.00;96218.97;5114267;27;20031;-76
2023/12/14 04:13:12;;;;;;;8.35;4.70;;;;;;;11.29;100.00;96227.25;5097210;27;20471;-77
2023/12/14 04:15:38;;;;;;;10.30;4.75;;;;;;;11.38;100.00;96207.72;5092409;28;20114;-77
2023/12/14 04:18:06;;;;;;;8.98;3.92;;;;;;;11.50;100.00;96231.75;5094064;28;20410;-76
2023/12/14 04:20:32;;;;;;;10.38;4.03;;;;;;;11.59;100.00;96221.09;5112999;27;20019;-77
2023/12/14 04:22:57;;;;;;;7.22;3.72;;;;;;;11.78;100.00;96223.88;5131449;27;20038;-77
2023/12/14 04:25:23;;;;;;;6.50;4.13;;;;;;;11.87;100.00;96224.94;5114002;27;20031;-77
2023/12/14 04:27:49;;;;;;;6.72;4.05;;;;;;;11.83;100.00;96226.16;5096983;27;20153;-76
2023/12/14 04:30:14;;;;;;;7.13;4.30;;;;;;;11.95;100.00;96235.81;5132601;27;20022;-76
2023/12/14 04:32:40;;;;;;;5.50;2.65;;;;;;;12.27;100.00;96217.72;5114069;27;20022;-77
2023/12/14 04:35:06;;;;;;;3.88;2.08;;;;;;;12.73;100.00;96211.69;5105908;28;20114;-76
2023/12/14 04:37:32;;;;;;;5.95;2.30;;;;;;;13.17;96.76;96207.56;5094845;28;20470;-83
2023/12/14 04:39:58;;;;;;;5.43;2.40;;;;;;;13.36;92.85;96202.19;5101759;27;20029;-81
2023/12/14 04:42:23;;;;;;;4.15;1.88;;;;;;;13.50;90.77;96199.00;5078721;28;20105;-83
2023/12/14 04:44:49;;;;;;;5.20;2.10;;;;;;;13.65;88.48;96193.19;5077486;28;20038;-82
2023/12/14 04:47:14;;;;;;;4.05;2.10;;;;;;;13.74;87.45;96187.78;5094528;27;20023;-81
2023/12/14 04:49:40;;;;;;;5.95;2.08;;;;;;;13.77;86.17;96179.41;5114814;27;20031;-81
2023/12/14 04:52:06;;;;;;;6.18;2.92;;;;;;;13.90;85.68;96205.97;5097754;27;20015;-82
2023/12/14 04:54:35;;;;;;;9.30;4.15;;;;;;;13.92;85.10;96195.91;5114347;27;20030;-81
2023/12/14 04:57:01;;;;;;;6.13;2.72;;;;;;;13.82;85.16;96182.50;5097710;27;20092;-82
2023/12/14 04:59:26;;;;;;;4.95;2.75;;;;;;;13.90;83.91;96184.47;5097399;27;20472;-80
2023/12/14 05:01:53;;;;;;;5.80;2.90;;;;;;;13.91;84.04;96189.66;5114733;27;20029;-81
2023/12/14 05:04:19;;;;;;;5.70;2.83;;;;;;;13.86;84.83;96185.75;5097578;27;20540;-81
2023/12/14 05:06:44;;;;;;;4.13;2.38;;;;;;;13.89;84.33;96196.19;5098731;27;20024;-81
2023/12/14 05:09:11;;;;;;;4.22;2.50;;;;;;;14.00;82.64;96190.63;5097113;27;20104;-81
2023/12/14 05:11:37;;;;;;;4.07;2.42;;;;;;;14.00;83.35;96193.31;5096726;27;20027;-79
2023/12/14 05:14:03;;;;;;;7.28;2.38;;;;;;;14.02;82.27;96192.19;5114402;27;20015;-83
2023/12/14 05:16:28;;;;;;;4.75;2.55;;;;;;;14.03;81.80;96195.69;5097317;27;20026;-78
2023/12/14 05:18:54;;;;;;;9.02;2.40;;;;;;;14.04;80.77;96187.50;5098844;27;20482;-81
2023/12/14 05:21:20;;;;;;;4.07;2.50;;;;;;;13.99;82.43;96189.78;5096817;27;20474;-81
2023/12/14 05:23:48;;;;;;;4.10;2.70;;;;;;;13.95;83.63;96195.59;5094916;27;20026;-82
2023/12/14 05:26:14;;;;;;;4.22;2.67;;;;;;;13.95;82.89;96195.59;5102189;27;20348;-82
2023/12/14 05:28:52;;;;;;;3.63;2.47;;;;;;;13.92;82.90;96196.75;5097600;28;20034;-83
2023/12/14 05:31:27;;;;;;;5.65;3.20;;;;;;;13.95;82.99;96203.66;5097414;28;20486;-82
2023/12/14 05:33:52;;;;;;;3.83;2.67;;;;;;;13.97;81.96;96193.59;5114409;27;20039;-81
2023/12/14 05:36:18;;;;;;;4.53;2.70;;;;;;;14.06;80.88;96190.00;5114653;27;20037;-81
2023/12/14 05:38:44;;;;;;;10.77;3.72;;;;;;;14.06;81.36;96200.75;5097009;28;20054;-81
2023/12/14 05:41:10;;;;;;;5.53;2.80;;;;;;;14.05;80.40;96196.41;5096833;27;20102;-83
2023/12/14 05:43:36;;;;;;;10.05;5.60;;;;;;;13.95;84.76;96226.03;5096836;27;20452;-81
2023/12/14 05:46:02;;;;;;;8.07;4.50;;;;;;;13.58;88.86;96226.00;5113898;28;20490;-81
2023/12/14 05:48:28;;;;;;;10.80;5.75;;;;;;;13.33;91.96;96237.38;5100967;28;20065;-82
2023/12/14 05:50:53;;;;;;;38.10;19.35;;;;;;;13.18;94.89;96260.28;5094429;28;20170;-82
2023/12/14 05:53:19;;;;;;;23.55;8.80;;;;;;;12.99;97.09;96260.25;5076514;28;20179;-81
2023/12/14 05:55:45;;;;;;;19.10;6.88;;;;;;;12.88;100.00;96276.50;5076256;28;20028;-81
2023/12/14 05:58:10;;;;;;;7.20;4.20;;;;;;;12.74;100.00;96276.91;5093502;28;20529;-81
2023/12/14 06:00:40;;;;;;;37.42;17.40;;;;;;;12.64;100.00;96276.06;5076228;28;20564;-81
2023/12/14 06:03:15;;;;;;;14.70;7.68;;;;;;;12.38;100.00;96291.81;5076645;28;20097;-81
2023/12/14 06:05:46;;;;;;;14.27;8.20;;;;;;;12.19;100.00;96287.22;5093687;28;20047;-81
2023/12/14 06:08:12;;;;;;;9.50;5.28;;;;;;;12.09;100.00;96302.41;5093133;28;20020;-81
2023/12/14 06:13:59;;;;;;;14.13;6.82;;;;;;;11.72;100.00;96293.25;5112108;28;20031;-81
2023/12/14 06:16:25;;;;;;;10.30;5.00;;;;;;;11.58;100.00;96301.56;5076184;28;20015;-81
2023/12/14 06:19:05;;;;;;;12.18;6.25;;;;;;;11.58;100.00;96339.06;5093878;28;20046;-81
2023/12/14 06:21:51;;;;;;;12.52;6.35;;;;;;;11.52;100.00;96339.56;5076111;28;20081;-81
2023/12/14 06:24:16;;;;;;;12.65;5.47;;;;;;;11.58;100.00;96350.63;5092429;28;20123;-81
2023/12/14 06:26:43;;;;;;;12.77;5.60;;;;;;;11.68;100.00;96366.75;5076163;28;20527;-81
2023/12/14 06:29:11;;;;;;;12.93;5.10;;;;;;;11.59;100.00;96340.75;5093032;28;20020;-80
2023/12/14 06:31:38;;;;;;;23.58;10.82;;;;;;;11.78;100.00;96381.09;5076207;28;20042;-81
2023/12/14 06:34:04;;;;;;;13.45;6.55;;;;;;;11.74;100.00;96383.19;5093250;28;20509;-81
2023/12/14 06:36:30;;;;;;;14.93;6.75;;;;;;;11.77;100.00;96377.56;5076113;28;20523;-81
2023/12/14 06:38:57;;;;;;;41.97;19.42;;;;;;;11.83;100.00;96368.16;5076150;28;20481;-80
2023/12/14 06:41:23;;;;;;;29.52;16.55;;;;;;;11.81;100.00;96386.19;5075977;28;20066;-80
2023/12/14 06:43:49;;;;;;;17.88;8.80;;;;;;;11.88;100.00;96411.47;5076048;28;20024;-80
2023/12/14 06:46:15;;;;;;;21.45;8.02;;;;;;;11.89;100.00;96397.09;5095949;28;20405;-81
2023/12/14 06:48:42;;;;;;;19.98;8.45;;;;;;;11.93;100.00;96425.34;5079752;28;20494;-80
2023/12/14 06:51:07;;;;;;;21.70;10.07;;;;;;;11.83;100.00;96433.31;5079678;28;20410;-81
2023/12/14 06:53:34;;;;;;;23.02;11.40;;;;;;;11.77;100.00;96433.84;5079634;28;20024;-80
2023/12/14 06:56:00;;;;;;;27.98;11.32;;;;;;;11.90;100.00;96433.66;5079704;28;20538;-81
2023/12/14 06:58:26;;;;;;;22.92;13.55;;;;;;;11.95;100.00;96451.03;5079546;28;20062;-79
2023/12/14 07:00:51;;;;;;;16.67;8.65;;;;;;;11.94;100.00;96448.47;5096225;28;20035;-80
2023/12/14 07:03:17;;;;;;;19.38;8.32;;;;;;;11.95;100.00;96455.53;5079255;28;20073;-81
2023/12/14 07:05:42;;;;;;;15.50;7.55;;;;;;;12.10;100.00;96464.94;5087399;28;20502;-81
2023/12/14 07:08:08;;;;;;;18.35;8.90;;;;;;;12.13;100.00;96479.91;5096264;28;20030;-80
2023/12/14 07:10:34;;;;;;;14.93;7.55;;;;;;;12.29;100.00;96488.34;5113119;28;20383;-80
2023/12/14 07:12:59;;;;;;;17.77;8.13;;;;;;;12.40;100.00;96491.81;5096162;28;20085;-81
2023/12/14 07:15:25;;;;;;;14.52;8.32;;;;;;;12.55;100.00;96481.56;5096057;28;20405;-80
2023/12/14 07:17:51;;;;;;;28.23;11.20;;;;;;;12.65;100.00;96492.34;5113142;28;20031;-80
2023/12/14 07:20:16;;;;;;;48.58;17.38;;;;;;;12.72;100.00;96493.53;5095979;28;20023;-81
2023/12/14 07:22:42;;;;;;;55.17;19.23;;;;;;;12.87;100.00;96505.59;5096183;28;20038;-81
2023/12/14 07:25:08;;;;;;;28.30;11.75;;;;;;;13.18;100.00;96511.84;5096074;28;20030;-81
2023/12/14 07:27:34;;;;;;;44.17;15.13;;;;;;;13.35;100.00;96503.13;5078896;28;20023;-80
2023/12/14 07:30:00;;;;;;;44.58;15.88;;;;;;;13.56;100.00;96506.56;5095812;28;20033;-80
2023/12/14 07:32:26;;;;;;;35.80;15.23;;;;;;;13.43;100.00;96519.41;5095686;28;20066;-80
2023/12/14 07:34:52;;;;;;;35.95;15.45;;;;;;;13.55;100.00;96527.22;5113020;28;20020;-80
2023/12/14 07:37:18;;;;;;;29.20;13.70;;;;;;;13.61;100.00;96541.06;5095577;28;20101;-80
2023/12/14 07:39:43;;;;;;;19.65;9.02;;;;;;;13.63;100.00;96555.22;5095815;28;20140;-79
2023/12/14 07:42:09;;;;;;;11.95;6.53;;;;;;;13.32;100.00;96566.00;5095522;28;20081;-79
2023/12/14 07:44:35;;;;;;;19.52;7.85;;;;;;;13.39;100.00;96577.91;5095501;28;20028;-80
2023/12/14 07:47:01;;;;;;;31.55;13.23;;;;;;;13.66;100.00;96573.78;5095705;28;20080;-79
2023/12/14 07:49:26;;;;;;;31.30;11.50;;;;;;;13.68;100.00;96561.88;5112315;28;20016;-78
2023/12/14 07:51:52;;;;;;;9.77;5.85;;;;;;;13.83;100.00;96582.00;5095482;28;20058;-79
2023/12/14 07:54:18;;;;;;;14.38;6.10;;;;;;;13.92;100.00;96588.38;5095357;28;20515;-80
2023/12/14 07:56:44;;;;;;;17.40;7.50;;;;;;;14.11;100.00;96588.41;5095247;28;20467;-80
2023/12/14 07:59:10;;;;;;;11.00;5.75;;;;;;;14.18;100.00;96599.47;5095198;28;20027;-79
2023/12/14 08:04:57;;;;;;;33.58;14.57;;;;;;;14.37;100.00;96604.84;5123542;27;20053;-79
2023/12/14 08:07:28;;;;;;;8.50;5.05;;;;;;;14.32;100.00;96617.88;5098463;27;20110;-80
2023/12/14 08:09:54;;;;;;;9.35;4.93;;;;;;;14.29;100.00;96608.25;5099187;27;20023;-80
2023/12/14 08:12:21;;;;;;;39.97;13.32;;;;;;;14.41;100.00;96607.16;5098178;27;20020;-80
2023/12/14 08:14:47;;;;;;;23.88;6.22;;;;;;;14.38;100.00;96623.56;5106904;27;20037;-80
2023/12/14 08:17:13;;;;;;;16.48;6.80;;;;;;;14.77;100.00;96607.38;5098171;27;20035;-79
2023/12/14 08:19:38;;;;;;;18.25;6.50;;;;;;;15.25;100.00;96608.16;5098666;27;20062;-80
2023/12/14 08:22:04;;;;;;;10.50;4.60;;;;;;;15.75;100.00;96597.06;5115049;27;20035;-81
2023/12/14 08:24:29;;;;;;;7.38;4.20;;;;;;;16.32;100.00;96602.06;5098150;27;20034;-80
2023/12/14 08:26:55;;;;;;;5.50;3.15;;;;;;;16.15;100.00;96609.13;5098171;27;20067;-80
2023/12/14 08:29:22;;;;;;;10.23;3.72;;;;;;;16.16;100.00;96610.84;5097887;27;20068;-80
2023/12/14 08:31:48;;;;;;;15.07;6.30;;;;;;;16.12;100.00;96608.59;5094600;28;20479;-80
2023/12/14 08:34:16;;;;;;;8.55;4.32;;;;;;;16.12;100.00;96616.69;5094764;28;20039;-80
2023/12/14 08:36:41;;;;;;;8.35;3.40;;;;;;;15.80;100.00;96622.56;5114723;27;20039;-79
2023/12/14 08:39:07;;;;;;;4.93;3.00;;;;;;;15.44;100.00;96626.94;5097603;27;20331;-80
2023/12/14 08:41:33;;;;;;;4.28;2.47;;;;;;;15.32;100.00;96638.88;5097806;27;20172;-80
2023/12/14 08:43:58;;;;;;;6.40;3.00;;;;;;;15.42;100.00;96630.78;5097764;27;20023;-80
2023/12/14 08:46:24;;;;;;;8.05;4.13;;;;;;;15.87;100.00;96641.69;5097479;27;20035;-80
2023/12/14 08:48:50;;;;;;;6.80;2.08;;;;;;;16.22;100.00;96625.56;5097713;27;20015;-81
2023/12/14 08:51:15;;;;;;;4.70;2.13;;;;;;;16.03;100.00;96628.38;5133045;27;20522;-80
2023/12/14 08:53:41;;;;;;;9.43;2.50;;;;;;;16.29;100.00;96642.84;5097611;27;20532;-80
2023/12/14 08:56:08;;;;;;;6.63;1.75;;;;;;;17.14;95.49;96639.59;5097538;27;20152;-80
2023/12/14 08:58:34;;;;;;;5.57;2.17;;;;;;;17.32;92.94;96637.69;5097369;27;20019;-80
2023/12/14 09:00:59;;;;;;;3.72;1.70;;;;;;;17.52;90.37;96643.75;5097273;27;20038;-81
2023/12/14 09:03:26;;;;;;;4.80;1.90;;;;;;;17.64;88.83;96647.91;5097228;27;20026;-80
2023/12/14 09:05:52;;;;;;;2.63;1.70;;;;;;;17.07;92.72;96638.56;5114593;27;20104;-80
2023/12/14 09:08:19;;;;;;;3.92;2.03;;;;;;;17.43;92.50;96640.16;5132072;27;20541;-80
2023/12/14 09:10:44;;;;;;;5.25;2.00;;;;;;;18.00;88.06;96637.75;5097242;27;20039;-80
2023/12/14 09:13:10;;;;;;;8.02;1.98;;;;;;;18.93;77.71;96622.09;5096954;28;20023;-80
2023/12/14 09:15:36;;;;;;;10.73;2.13;;;;;;;19.51;73.21;96614.75;5097220;27;20023;-80
2023/12/14 09:18:02;;;;;;;3.58;1.70;;;;;;;19.44;69.82;96620.06;5114227;27;20019;-80
2023/12/14 09:20:28;;;;;;;1.98;1.40;;;;;;;18.58;75.04;96621.56;5113910;27;20038;-80
2023/12/14 09:22:54;;;;;;;5.57;2.03;;;;;;;17.60;84.52;96636.56;5096930;27;20031;-80
2023/12/14 09:25:20;;;;;;;10.70;1.92;;;;;;;17.51;87.95;96631.22;5096878;27;20217;-79
2023/12/14 09:27:46;;;;;;;5.10;1.77;;;;;;;17.69;87.36;96624.78;5096991;27;20026;-81
2023/12/14 09:30:12;;;;;;;5.20;1.77;;;;;;;17.60;85.96;96633.84;5096861;27;20051;-81
2023/12/14 09:32:41;;;;;;;3.47;1.65;;;;;;;17.68;85.78;96624.94;5096909;28;20043;-80
2023/12/14 09:35:08;;;;;;;2.53;1.50;;;;;;;17.40;87.83;96635.06;5120704;27;20101;-81
2023/12/14 09:37:38;;;;;;;4.95;1.25;;;;;;;17.81;85.11;96615.38;5117348;27;20023;-81
2023/12/14 09:40:12;;;;;;;8.68;1.88;;;;;;;17.98;83.17;96615.44;5134248;27;20034;-79
2023/12/14 09:42:44;;;;;;;6.50;3.20;;;;;;;18.12;80.77;96615.66;5132548;27;20023;-80
2023/12/14 09:45:14;;;;;;;3.40;2.40;;;;;;;17.45;82.87;96621.91;5134363;27;20054;-80
2023/12/14 09:47:46;;;;;;;6.40;3.40;;;;;;;17.47;85.26;96619.91;5117407;27;20651;-81
2023/12/14 09:50:14;;;;;;;6.50;3.60;;;;;;;17.68;83.81;96623.09;5117345;27;20114;-79
2023/12/14 09:52:45;;;;;;;4.93;3.33;;;;;;;17.40;84.35;96623.41;5117165;27;20504;-80
2023/12/14 09:55:21;;;;;;;9.45;5.45;;;;;;;17.50;84.68;96629.56;5117362;27;20424;-80
2023/12/14 09:57:56;;;;;;;23.67;8.77;;;;;;;16.96;87.71;96625.28;5134233;27;20032;-80
2023/12/14 10:00:38;;;;;;;12.23;4.75;;;;;;;16.65;91.75;96633.81;5152931;27;20018;-80
2023/12/14 10:03:29;;;;;;;5.80;2.00;;;;;;;16.58;92.87;96627.31;5116805;27;20119;-81
2023/12/14 10:06:07;;;;;;;3.35;1.90;;;;;;;16.92;92.32;96632.03;5119789;27;20054;-80
2023/12/14 10:08:42;;;;;;;2.70;1.70;;;;;;;17.56;84.00;96618.13;5133648;27;20038;-81
2023/12/14 10:11:22;;;;;;;4.90;2.13;;;;;;;17.55;83.83;96628.09;5152877;27;20071;-81
2023/12/14 10:13:52;;;;;;;20.88;5.38;;;;;;;17.69;83.66;96619.38;5117121;27;20485;-82
2023/12/14 10:16:34;;;;;;;6.32;2.83;;;;;;;17.52;82.64;96611.31;5134414;27;20031;-82
2023/12/14 10:19:02;;;;;;;5.55;2.80;;;;;;;17.52;83.52;96612.16;5116497;27;20457;-80
2023/12/14 10:25:00;;;;;;;6.80;3.72;;;;;;;16.41;87.06;96627.28;5157110;27;20127;-80
2023/12/14 10:27:34;;;;;;;12.63;3.30;;;;;;;16.26;89.74;96633.22;5115780;27;20454;-80
2023/12/14 10:30:12;;;;;;;5.22;3.13;;;;;;;15.96;92.73;96627.31;5138579;27;20046;-80
2023/12/14 10:32:41;;;;;;;5.45;2.67;;;;;;;15.91;95.54;96632.28;5137820;27;20550;-80
2023/12/14 10:35:12;;;;;;;7.72;2.38;;;;;;;15.65;98.31;96630.31;5120737;27;20030;-80
2023/12/14 10:37:42;;;;;;;8.68;3.25;;;;;;;15.63;99.36;96637.66;5138881;27;20413;-81
2023/12/14 10:40:17;;;;;;;14.77;4.93;;;;;;;15.66;98.85;96640.06;5120373;27;20417;-81
2023/12/14 10:42:47;;;;;;;10.05;4.60;;;;;;;15.59;99.08;96641.69;5137907;27;20041;-80
2023/12/14 10:45:20;;;;;;;9.43;4.43;;;;;;;14.94;100.00;96653.31;5120391;27;20027;-79
2023/12/14 10:48:01;;;;;;;9.07;3.67;;;;;;;14.84;100.00;96659.69;5137890;27;20027;-79
2023/12/14 10:50:39;;;;;;;7.00;3.20;;;;;;;14.79;100.00;96664.66;5120337;27;20113;-82
2023/12/14 10:53:09;;;;;;;14.70;5.70;;;;;;;14.32;100.00;96669.84;5137415;27;20034;-80
2023/12/14 10:55:42;;;;;;;8.60;4.35;;;;;;;14.21;100.00;96683.41;5120703;27;20224;-80
2023/12/14 10:58:14;;;;;;;8.90;4.32;;;;;;;14.03;100.00;96671.59;5120149;27;20038;-80
2023/12/14 11:00:45;;;;;;;11.23;5.80;;;;;;;14.24;100.00;96668.84;5120138;27;20063;-79
2023/12/14 11:03:17;;;;;;;12.37;4.37;;;;;;;14.41;100.00;96671.72;5120299;27;20351;-79
2023/12/14 11:05:46;;;;;;;8.13;4.20;;;;;;;14.36;100.00;96670.44;5120531;27;20038;-80
2023/12/14 11:08:22;;;;;;;10.88;3.22;;;;;;;14.44;100.00;96671.44;5120010;27;20065;-80
2023/12/14 11:11:10;;;;;;;4.65;2.03;;;;;;;14.54;100.00;96677.69;5136992;27;20031;-80
2023/12/14 11:13:42;;;;;;;3.75;1.80;;;;;;;14.51;100.00;96686.03;5137945;27;20048;-80
2023/12/14 11:16:10;;;;;;;6.78;2.05;;;;;;;14.22;100.00;96679.72;5120003;27;20091;-81
2023/12/14 11:18:48;;;;;;;2.80;1.60;;;;;;;14.20;100.00;96697.84;5137727;27;20049;-80
2023/12/14 11:21:24;;;;;;;8.10;1.70;;;;;;;13.86;100.00;96691.09;5136926;27;20435;-79
2023/12/14 11:26:47;;;;;;;5.13;1.63;;;;;;;13.79;100.00;96700.66;5155666;27;20033;-81
2023/12/14 11:29:29;;;;;;;5.25;2.47;;;;;;;13.75;100.00;96704.63;5119431;27;20030;-81
2023/12/14 11:32:00;;;;;;;12.15;4.13;;;;;;;13.70;100.00;96701.47;5138432;27;20456;-80
2023/12/14 11:34:35;;;;;;;12.32;6.22;;;;;;;13.80;100.00;96714.00;5119611;27;20027;-79
2023/12/14 11:37:07;;;;;;;4.63;2.45;;;;;;;13.78;100.00;96707.06;5135339;27;20057;-81
2023/12/14 11:39:38;;;;;;;7.90;3.22;;;;;;;13.96;100.00;96695.53;5119406;27;20023;-80